createdAt,value
2018-06-09T00:02:02.906Z,21.07
2018-06-09T00:04:32.536Z,20.89
2018-06-09T00:07:02.158Z,20.94
2018-06-09T00:09:31.712Z,20.76
2018-06-09T00:12:01.031Z,20.74
2018-06-09T00:14:30.830Z,20.64
2018-06-09T00:17:00.391Z,20.64
2018-06-09T00:19:30.743Z,20.59
2018-06-09T00:22:00.504Z,20.33
2018-06-09T00:24:30.161Z,20.33
2018-06-09T00:27:00.046Z,20.13
2018-06-09T00:29:30.081Z,20.14
2018-06-09T00:32:00.275Z,20.08
2018-06-09T00:34:30.019Z,20.08
2018-06-09T00:36:59.345Z,20.01
2018-06-09T00:39:29.066Z,20.06
2018-06-09T00:41:58.489Z,20.03
2018-06-09T00:44:28.160Z,20.19
2018-06-09T00:46:57.525Z,20.07
2018-06-09T00:49:27.229Z,19.87
2018-06-09T00:51:56.562Z,19.79
2018-06-09T00:54:25.934Z,19.59
2018-06-09T00:56:55.261Z,19.78
2018-06-09T00:59:24.642Z,19.71
2018-06-09T01:01:54.396Z,19.71
2018-06-09T01:04:23.734Z,19.61
2018-06-09T01:06:53.403Z,19.60
2018-06-09T01:09:23.142Z,19.61
2018-06-09T01:11:52.725Z,19.61
2018-06-09T01:14:23.083Z,19.68
2018-06-09T01:16:53.139Z,19.71
2018-06-09T01:19:22.495Z,19.49
2018-06-09T01:21:52.493Z,19.51
2018-06-09T01:24:22.770Z,19.56
2018-06-09T01:26:52.432Z,19.49
2018-06-09T01:29:22.253Z,19.50
2018-06-09T01:31:52.658Z,19.37
2018-06-09T01:34:21.975Z,19.22
2018-06-09T01:36:51.367Z,19.25
2018-06-09T01:39:20.719Z,19.21
2018-06-09T01:41:50.641Z,19.13
2018-06-09T01:44:21.210Z,19.29
2018-06-09T01:46:50.576Z,19.44
2018-06-09T01:49:20.365Z,19.53
2018-06-09T01:51:49.869Z,19.39
2018-06-09T01:54:19.575Z,19.30
2018-06-09T01:56:48.928Z,19.22
2018-06-09T01:59:18.605Z,19.24
2018-06-09T02:01:47.934Z,19.25
2018-06-09T02:04:18.755Z,19.14
2018-06-09T02:06:48.161Z,19.27
2018-06-09T02:09:17.731Z,19.24
2018-06-09T02:11:47.351Z,19.20
2018-06-09T02:14:16.684Z,19.29
2018-06-09T02:16:46.363Z,19.15
2018-06-09T02:19:16.612Z,19.13
2018-06-09T02:21:45.982Z,19.22
2018-06-09T02:24:15.285Z,19.29
2018-06-09T02:26:45.276Z,19.24
2018-06-09T02:29:15.000Z,19.33
2018-06-09T02:31:44.727Z,19.46
2018-06-09T02:34:14.046Z,19.51
2018-06-09T02:36:43.417Z,19.51
2018-06-09T02:39:13.116Z,19.40
2018-06-09T02:41:42.996Z,19.26
2018-06-09T02:44:13.198Z,19.21
2018-06-09T02:46:42.565Z,19.07
2018-06-09T02:49:11.861Z,19.05
2018-06-09T02:51:41.222Z,18.95
2018-06-09T02:54:11.522Z,18.86
2018-06-09T02:56:41.265Z,18.74
2018-06-09T02:59:10.565Z,18.62
2018-06-09T03:01:40.245Z,18.66
2018-06-09T03:04:09.553Z,18.66
2018-06-09T03:06:39.727Z,18.76
2018-06-09T03:09:09.382Z,18.81
2018-06-09T03:11:38.733Z,18.90
2018-06-09T03:14:08.129Z,18.89
2018-06-09T03:16:37.526Z,18.88
2018-06-09T03:19:06.829Z,18.84
2018-06-09T03:21:36.173Z,19.00
2018-06-09T03:24:05.508Z,18.87
2018-06-09T03:26:35.231Z,18.72
2018-06-09T03:29:05.417Z,18.91
2018-06-09T03:31:35.050Z,18.93
2018-06-09T03:34:05.249Z,18.91
2018-06-09T03:36:34.580Z,18.88
2018-06-09T03:39:05.232Z,18.75
2018-06-09T03:41:34.603Z,18.54
2018-06-09T03:44:03.934Z,18.52
2018-06-09T03:46:33.512Z,18.62
2018-06-09T03:49:05.058Z,18.53
2018-06-09T03:51:34.491Z,18.53
2018-06-09T03:54:03.849Z,18.56
2018-06-09T03:56:33.890Z,18.55
2018-06-09T03:59:03.210Z,18.50
2018-06-09T04:01:32.543Z,18.62
2018-06-09T04:04:02.127Z,18.66
2018-06-09T04:06:31.794Z,18.71
2018-06-09T04:09:01.560Z,18.67
2018-06-09T04:11:31.687Z,18.68
2018-06-09T04:14:01.314Z,18.73
2018-06-09T04:16:31.045Z,18.72
2018-06-09T04:19:00.377Z,18.88
2018-06-09T04:21:29.710Z,18.85
2018-06-09T04:24:00.138Z,18.81
2018-06-09T04:26:29.839Z,18.71
2018-06-09T04:28:59.144Z,18.85
2018-06-09T04:31:28.769Z,18.87
2018-06-09T04:33:58.117Z,18.95
2018-06-09T04:36:27.424Z,18.94
2018-06-09T04:38:57.009Z,18.87
2018-06-09T04:41:26.698Z,18.91
2018-06-09T04:43:56.478Z,18.97
2018-06-09T04:46:25.821Z,18.93
2018-06-09T04:48:55.409Z,18.91
2018-06-09T04:51:24.750Z,19.04
2018-06-09T04:53:54.084Z,19.13
2018-06-09T04:56:23.527Z,19.08
2018-06-09T04:58:53.697Z,19.31
2018-06-09T05:01:23.029Z,19.30
2018-06-09T05:03:52.714Z,19.30
2018-06-09T05:06:22.376Z,19.42
2018-06-09T05:08:51.702Z,19.51
2018-06-09T05:11:21.061Z,19.70
2018-06-09T05:13:50.863Z,19.67
2018-06-09T05:16:20.610Z,19.77
2018-06-09T05:18:50.159Z,19.87
2018-06-09T05:21:19.496Z,19.96
2018-06-09T05:23:48.840Z,19.98
2018-06-09T05:26:18.220Z,20.09
2018-06-09T05:28:47.500Z,20.08
2018-06-09T05:31:17.140Z,20.11
2018-06-09T05:33:46.492Z,20.19
2018-06-09T05:36:16.217Z,20.08
2018-06-09T05:38:46.258Z,20.24
2018-06-09T05:41:15.592Z,20.43
2018-06-09T05:43:44.955Z,20.59
2018-06-09T05:46:14.256Z,20.71
2018-06-09T05:48:44.071Z,20.91
2018-06-09T05:51:13.384Z,21.03
2018-06-09T05:53:42.756Z,21.12
2018-06-09T05:56:12.179Z,21.19
2018-06-09T05:58:41.752Z,21.28
2018-06-09T06:01:11.072Z,21.26
2018-06-09T06:03:40.767Z,21.49
2018-06-09T06:06:10.201Z,21.41
2018-06-09T06:08:39.870Z,21.62
2018-06-09T06:11:09.201Z,21.62
2018-06-09T06:13:38.543Z,21.57
2018-06-09T06:16:07.880Z,21.56
2018-06-09T06:18:37.242Z,21.62
2018-06-09T06:21:06.844Z,21.34
2018-06-09T06:23:36.785Z,21.41
2018-06-09T06:26:06.498Z,21.36
2018-06-09T06:28:35.852Z,21.42
2018-06-09T06:31:06.139Z,21.39
2018-06-09T06:33:35.477Z,21.45
2018-06-09T06:36:04.916Z,21.51
2018-06-09T06:38:34.247Z,21.49
2018-06-09T06:41:03.539Z,21.54
2018-06-09T06:43:33.694Z,21.60
2018-06-09T06:46:03.084Z,21.62
2018-06-09T06:48:32.926Z,21.82
2018-06-09T06:51:02.875Z,21.93
2018-06-09T06:53:32.529Z,21.94
2018-06-09T06:56:02.073Z,22.02
2018-06-09T06:58:31.857Z,21.96
2018-06-09T07:01:01.490Z,21.94
2018-06-09T07:03:30.864Z,21.99
2018-06-09T07:06:00.552Z,21.97
2018-06-09T07:08:29.885Z,22.21
2018-06-09T07:10:59.634Z,22.21
2018-06-09T07:13:29.014Z,22.46
2018-06-09T07:15:58.664Z,22.44
2018-06-09T07:18:28.246Z,22.63
2018-06-09T07:20:57.579Z,22.82
2018-06-09T07:23:26.919Z,23.03
2018-06-09T07:25:56.965Z,23.25
2018-06-09T07:28:26.297Z,23.62
2018-06-09T07:30:55.628Z,23.59
2018-06-09T07:33:25.006Z,23.74
2018-06-09T07:35:54.313Z,23.85
2018-06-09T07:38:25.373Z,23.47
2018-06-09T07:40:54.776Z,23.79
2018-06-09T07:43:24.150Z,24.07
2018-06-09T07:45:53.524Z,24.13
2018-06-09T07:48:22.876Z,24.35
2018-06-09T07:50:52.337Z,23.98
2018-06-09T07:53:21.692Z,24.30
2018-06-09T07:55:51.023Z,24.28
2018-06-09T07:58:20.398Z,24.39
2018-06-09T08:00:49.997Z,24.28
2018-06-09T08:03:19.381Z,24.33
2018-06-09T08:05:49.096Z,24.56
2018-06-09T08:08:18.924Z,24.73
2018-06-09T08:10:48.565Z,24.72
2018-06-09T08:13:17.923Z,24.95
2018-06-09T08:15:47.953Z,25.22
2018-06-09T08:18:17.341Z,25.42
2018-06-09T08:20:46.698Z,25.42
2018-06-09T08:23:16.481Z,25.09
2018-06-09T08:25:45.821Z,25.24
2018-06-09T08:28:15.553Z,24.87
2018-06-09T08:30:44.875Z,25.17
2018-06-09T08:33:15.550Z,25.47
2018-06-09T08:35:44.857Z,25.30
2018-06-09T08:38:14.232Z,25.57
2018-06-09T08:40:43.553Z,25.71
2018-06-09T08:43:12.954Z,25.88
2018-06-09T08:45:42.727Z,26.05
2018-06-09T08:48:12.076Z,25.61
2018-06-09T08:50:41.810Z,25.43
2018-06-09T08:53:13.752Z,25.57
2018-06-09T08:55:43.228Z,25.76
2018-06-09T08:58:12.604Z,26.11
2018-06-09T09:00:41.921Z,26.27
2018-06-09T09:03:11.612Z,26.68
2018-06-09T09:05:41.050Z,26.65
2018-06-09T09:08:10.413Z,26.58
2018-06-09T09:10:40.096Z,26.88
2018-06-09T09:13:10.202Z,27.01
2018-06-09T09:15:41.199Z,27.11
2018-06-09T09:18:10.553Z,27.02
2018-06-09T09:20:40.233Z,27.00
2018-06-09T09:23:10.531Z,27.07
2018-06-09T09:25:39.857Z,26.73
2018-06-09T09:28:09.406Z,27.09
2018-06-09T09:30:38.735Z,26.70
2018-06-09T09:33:09.245Z,27.12
2018-06-09T09:35:39.148Z,27.62
2018-06-09T09:38:08.481Z,27.23
2018-06-09T09:40:38.174Z,27.70
2018-06-09T09:43:08.256Z,28.11
2018-06-09T09:45:39.045Z,28.17
2018-06-09T09:48:08.362Z,28.33
2018-06-09T09:50:37.737Z,28.37
2018-06-09T09:53:07.070Z,28.59
2018-06-09T09:55:36.428Z,28.63
2018-06-09T09:58:06.049Z,28.66
2018-06-09T10:00:37.555Z,28.88
2018-06-09T10:03:07.330Z,28.23
2018-06-09T10:05:37.361Z,28.54
2018-06-09T10:08:06.994Z,28.37
2018-06-09T10:10:36.378Z,28.28
2018-06-09T10:13:06.035Z,28.84
2018-06-09T10:15:35.377Z,28.58
2018-06-09T10:18:04.790Z,29.27
2018-06-09T10:20:35.843Z,28.97
2018-06-09T10:23:06.261Z,28.75
2018-06-09T10:25:35.984Z,29.05
2018-06-09T10:28:05.662Z,29.67
2018-06-09T10:30:35.007Z,29.84
2018-06-09T10:33:05.542Z,29.99
2018-06-09T10:35:34.902Z,30.15
2018-06-09T10:38:07.055Z,30.04
2018-06-09T10:40:38.568Z,29.72
2018-06-09T10:43:07.984Z,29.84
2018-06-09T10:45:38.112Z,29.89
2018-06-09T10:48:08.454Z,30.46
2018-06-09T10:50:38.361Z,30.77
2018-06-09T10:53:07.689Z,30.96
2018-06-09T10:55:37.028Z,30.51
2018-06-09T10:58:06.865Z,31.21
2018-06-09T11:00:36.230Z,31.16
2018-06-09T11:03:07.558Z,31.04
2018-06-09T11:05:36.933Z,31.48
2018-06-09T11:08:06.257Z,31.98
2018-06-09T11:10:35.630Z,31.86
2018-06-09T11:13:05.020Z,31.51
2018-06-09T11:15:35.419Z,31.43
2018-06-09T11:18:05.386Z,31.82
2018-06-09T11:20:35.077Z,31.93
2018-06-09T11:23:04.461Z,31.89
2018-06-09T11:25:35.134Z,32.01
2018-06-09T11:28:04.901Z,31.94
2018-06-09T11:30:34.250Z,31.81
2018-06-09T11:33:03.618Z,32.26
2018-06-09T11:35:32.954Z,32.32
2018-06-09T11:38:03.555Z,32.13
2018-06-09T11:40:32.956Z,31.21
2018-06-09T11:43:02.283Z,31.20
2018-06-09T11:45:32.561Z,32.17
2018-06-09T11:48:02.406Z,32.37
2018-06-09T11:50:31.769Z,32.83
2018-06-09T11:53:01.085Z,32.71
2018-06-09T11:55:31.188Z,32.94
2018-06-09T11:58:00.505Z,32.68
2018-06-09T12:00:30.214Z,32.75
2018-06-09T12:02:59.552Z,33.20
2018-06-09T12:05:28.960Z,33.21
2018-06-09T12:07:59.094Z,33.49
2018-06-09T12:10:29.479Z,33.41
2018-06-09T12:12:59.694Z,33.36
2018-06-09T12:15:29.037Z,33.54
2018-06-09T12:17:58.473Z,33.60
2018-06-09T12:20:27.870Z,33.50
2018-06-09T12:22:57.677Z,32.79
2018-06-09T12:25:27.043Z,33.44
2018-06-09T12:27:56.776Z,33.71
2018-06-09T12:30:26.368Z,33.66
2018-06-09T12:32:56.039Z,33.22
2018-06-09T12:35:25.479Z,33.51
2018-06-09T12:37:55.189Z,33.82
2018-06-09T12:40:25.355Z,34.18
2018-06-09T12:42:54.650Z,34.02
2018-06-09T12:45:23.980Z,34.03
2018-06-09T12:47:54.590Z,34.11
2018-06-09T12:50:24.883Z,33.92
2018-06-09T12:52:54.188Z,33.98
2018-06-09T12:55:23.845Z,33.34
2018-06-09T12:57:53.816Z,33.97
2018-06-09T13:00:23.541Z,34.46
2018-06-09T13:02:52.848Z,34.20
2018-06-09T13:05:22.226Z,34.62
2018-06-09T13:07:52.232Z,34.14
2018-06-09T13:10:21.572Z,34.39
2018-06-09T13:12:50.908Z,34.69
2018-06-09T13:15:20.247Z,33.91
2018-06-09T13:17:49.566Z,34.37
2018-06-09T13:20:18.891Z,35.63
2018-06-09T13:22:48.428Z,35.37
2018-06-09T13:25:17.750Z,34.77
2018-06-09T13:27:47.361Z,34.56
2018-06-09T13:30:16.714Z,34.88
2018-06-09T13:32:46.263Z,35.13
2018-06-09T13:35:15.633Z,35.63
2018-06-09T13:37:44.958Z,36.22
2018-06-09T13:40:14.336Z,36.08
2018-06-09T13:42:44.324Z,34.86
2018-06-09T13:45:14.401Z,35.22
2018-06-09T13:47:44.064Z,35.04
2018-06-09T13:50:13.417Z,35.15
2018-06-09T13:52:42.849Z,35.58
2018-06-09T13:55:12.880Z,35.49
2018-06-09T13:57:42.216Z,35.67
2018-06-09T14:00:11.874Z,36.12
2018-06-09T14:02:41.557Z,36.08
2018-06-09T14:05:11.149Z,35.42
2018-06-09T14:07:41.209Z,35.06
2018-06-09T14:10:10.639Z,35.43
2018-06-09T14:12:40.608Z,35.70
2018-06-09T14:15:10.197Z,35.79
2018-06-09T14:17:39.539Z,35.49
2018-06-09T14:20:08.851Z,35.05
2018-06-09T14:22:38.217Z,34.89
2018-06-09T14:25:07.781Z,35.00
2018-06-09T14:27:37.108Z,35.04
2018-06-09T14:30:06.477Z,35.38
2018-06-09T14:32:35.849Z,36.19
2018-06-09T14:35:05.188Z,36.44
2018-06-09T14:37:34.762Z,35.92
2018-06-09T14:40:04.467Z,36.29
2018-06-09T14:42:33.784Z,35.67
2018-06-09T14:45:03.508Z,35.70
2018-06-09T14:47:33.192Z,36.02
2018-06-09T14:50:02.996Z,36.69
2018-06-09T14:52:32.325Z,36.63
2018-06-09T14:55:01.697Z,36.67
2018-06-09T14:57:31.379Z,36.30
2018-06-09T15:00:02.400Z,35.70
2018-06-09T15:02:31.814Z,35.31
2018-06-09T15:05:01.813Z,35.53
2018-06-09T15:07:31.171Z,35.34
2018-06-09T15:10:00.909Z,35.34
2018-06-09T15:12:30.244Z,34.52
2018-06-09T15:14:59.556Z,34.50
2018-06-09T15:17:28.979Z,34.25
2018-06-09T15:19:58.279Z,33.95
2018-06-09T15:22:27.604Z,33.59
2018-06-09T15:24:56.909Z,33.21
2018-06-09T15:27:26.366Z,32.91
2018-06-09T15:29:55.676Z,32.80
2018-06-09T15:32:25.986Z,32.89
2018-06-09T15:34:55.653Z,32.74
2018-06-09T15:37:24.990Z,32.78
2018-06-09T15:39:54.321Z,32.42
2018-06-09T15:42:23.672Z,32.15
2018-06-09T15:44:53.287Z,31.44
2018-06-09T15:47:22.804Z,31.30
2018-06-09T15:49:52.350Z,30.95
2018-06-09T15:52:22.083Z,30.55
2018-06-09T15:54:51.390Z,30.15
2018-06-09T15:57:21.037Z,29.66
2018-06-09T15:59:50.579Z,29.41
2018-06-09T16:02:20.220Z,29.29
2018-06-09T16:04:49.959Z,28.97
2018-06-09T16:07:19.558Z,28.27
2018-06-09T16:09:48.910Z,27.62
2018-06-09T16:12:18.611Z,26.72
2018-06-09T16:14:48.345Z,26.30
2018-06-09T16:17:18.113Z,25.83
2018-06-09T16:19:47.436Z,25.40
2018-06-09T16:22:16.789Z,25.19
2018-06-09T16:24:47.076Z,25.00
2018-06-09T16:27:16.844Z,24.94
2018-06-09T16:29:46.173Z,24.86
2018-06-09T16:32:15.509Z,24.72
2018-06-09T16:34:45.535Z,24.77
2018-06-09T16:37:14.852Z,24.91
2018-06-09T16:39:44.200Z,24.93
2018-06-09T16:42:13.673Z,25.01
2018-06-09T16:44:43.256Z,25.18
2018-06-09T16:47:12.784Z,25.38
2018-06-09T16:49:42.620Z,25.64
2018-06-09T16:52:11.977Z,25.71
2018-06-09T16:54:42.217Z,25.68
2018-06-09T16:57:11.576Z,25.72
2018-06-09T16:59:40.910Z,25.80
2018-06-09T17:02:10.629Z,25.76
2018-06-09T17:04:40.789Z,25.33
2018-06-09T17:07:10.154Z,25.64
2018-06-09T17:09:40.502Z,25.75
2018-06-09T17:12:10.198Z,25.73
2018-06-09T17:14:40.509Z,25.93
2018-06-09T17:17:10.752Z,25.83
2018-06-09T17:19:40.353Z,26.10
2018-06-09T17:22:09.731Z,26.08
2018-06-09T17:24:39.082Z,25.96
2018-06-09T17:27:08.449Z,25.94
2018-06-09T17:29:38.761Z,25.84
2018-06-09T17:32:08.093Z,26.00
2018-06-09T17:34:37.530Z,25.52
2018-06-09T17:37:06.863Z,25.61
2018-06-09T17:39:36.197Z,25.60
2018-06-09T17:42:05.572Z,25.55
2018-06-09T17:44:34.930Z,25.42
2018-06-09T17:47:04.389Z,25.41
2018-06-09T17:49:35.417Z,25.34
2018-06-09T17:52:05.073Z,25.09
2018-06-09T17:54:34.843Z,24.87
2018-06-09T17:57:04.241Z,24.69
2018-06-09T17:59:33.548Z,24.34
2018-06-09T18:02:03.061Z,24.08
2018-06-09T18:04:32.386Z,23.94
2018-06-09T18:07:01.820Z,23.92
2018-06-09T18:09:31.123Z,23.84
2018-06-09T18:12:00.508Z,23.60
2018-06-09T18:14:30.244Z,23.38
2018-06-09T18:16:59.908Z,23.22
2018-06-09T18:19:29.707Z,23.23
2018-06-09T18:21:58.972Z,23.09
2018-06-09T18:24:28.784Z,23.00
2018-06-09T18:26:58.422Z,23.02
2018-06-09T18:29:28.431Z,23.00
2018-06-09T18:31:58.699Z,22.76
2018-06-09T18:34:28.033Z,22.47
2018-06-09T18:36:57.386Z,22.54
2018-06-09T18:39:26.952Z,22.54
2018-06-09T18:41:56.588Z,22.56
2018-06-09T18:44:26.478Z,22.57
2018-06-09T18:46:56.603Z,22.51
2018-06-09T18:49:25.933Z,22.47
2018-06-09T18:51:55.248Z,22.51
2018-06-09T18:54:25.041Z,22.48
2018-06-09T18:56:54.697Z,22.52
2018-06-09T18:59:24.020Z,22.61
2018-06-09T19:01:53.747Z,22.66
2018-06-09T19:04:23.772Z,22.76
2018-06-09T19:06:53.225Z,22.92
2018-06-09T19:09:23.016Z,23.01
2018-06-09T19:11:52.616Z,23.24
2018-06-09T19:14:21.941Z,23.18
2018-06-09T19:16:51.357Z,22.76
2018-06-09T19:19:21.648Z,22.50
2018-06-09T19:21:51.074Z,22.27
2018-06-09T19:24:20.402Z,21.53
2018-06-09T19:26:49.741Z,21.11
2018-06-09T19:29:20.093Z,20.93
2018-06-09T19:31:49.435Z,21.01
2018-06-09T19:34:19.082Z,21.42
2018-06-09T19:36:48.729Z,21.38
2018-06-09T19:39:18.933Z,21.80
2018-06-09T19:41:49.107Z,21.99
2018-06-09T19:44:18.451Z,22.15
2018-06-09T19:46:47.800Z,22.26
2018-06-09T19:49:17.116Z,22.57
2018-06-09T19:51:48.244Z,22.72
2018-06-09T19:54:17.601Z,22.83
2018-06-09T19:56:47.080Z,22.69
2018-06-09T19:59:17.064Z,22.37
2018-06-09T20:01:46.396Z,22.24
2018-06-09T20:04:15.787Z,22.08
2018-06-09T20:06:45.496Z,22.14
2018-06-09T20:09:14.841Z,22.11
2018-06-09T20:11:44.293Z,22.00
2018-06-09T20:14:14.006Z,21.83
2018-06-09T20:16:43.351Z,21.73
2018-06-09T20:19:12.752Z,21.73
2018-06-09T20:21:42.133Z,21.67
2018-06-09T20:24:12.110Z,21.68
2018-06-09T20:26:41.424Z,21.74
2018-06-09T20:29:10.873Z,21.79
2018-06-09T20:31:40.626Z,21.80
2018-06-09T20:34:09.962Z,21.82
2018-06-09T20:36:39.732Z,21.85
2018-06-09T20:39:09.076Z,21.85
2018-06-09T20:41:38.384Z,21.77
2018-06-09T20:44:07.761Z,21.91
2018-06-09T20:46:37.132Z,22.07
2018-06-09T20:49:06.479Z,22.20
2018-06-09T20:51:36.111Z,22.36
2018-06-09T20:54:06.224Z,22.48
2018-06-09T20:56:35.558Z,22.46
2018-06-09T20:59:04.901Z,22.51
2018-06-09T21:01:34.236Z,22.28
2018-06-09T21:04:03.590Z,22.30
2018-06-09T21:06:32.878Z,22.41
2018-06-09T21:09:02.537Z,22.57
2018-06-09T21:11:32.009Z,22.50
2018-06-09T21:14:01.821Z,22.30
2018-06-09T21:18:59.223Z,21.99
2018-06-09T21:21:28.847Z,22.02
2018-06-09T21:23:58.196Z,21.88
2018-06-09T21:26:33.122Z,21.94
2018-06-09T21:29:06.605Z,21.88
2018-06-09T21:31:40.062Z,21.78
2018-06-09T21:34:25.736Z,21.72
2018-06-09T21:36:57.511Z,21.69
2018-06-09T21:39:32.932Z,21.61
2018-06-09T21:42:07.866Z,21.71
2018-06-09T21:44:37.543Z,21.68
2018-06-09T21:47:06.866Z,21.64
2018-06-09T21:49:36.214Z,21.33
2018-06-09T21:52:05.616Z,21.22
2018-06-09T21:54:35.174Z,21.11
2018-06-09T21:57:04.517Z,21.09
2018-06-09T21:59:34.196Z,21.15
2018-06-09T22:02:03.567Z,21.41
2018-06-09T22:04:32.917Z,21.56
2018-06-09T22:07:02.232Z,21.62
2018-06-09T22:09:31.581Z,21.70
2018-06-09T22:12:00.905Z,21.56
2018-06-09T22:14:30.575Z,21.34
2018-06-09T22:17:00.478Z,20.93
2018-06-09T22:19:29.807Z,20.81
2018-06-09T22:21:59.522Z,20.59
2018-06-09T22:24:29.099Z,20.74
2018-06-09T22:26:58.745Z,20.85
2018-06-09T22:29:29.124Z,20.83
2018-06-09T22:31:58.483Z,21.15
2018-06-09T22:34:27.839Z,20.79
2018-06-09T22:36:57.204Z,20.88
2018-06-09T22:39:26.538Z,20.83
2018-06-09T22:41:56.264Z,20.86
2018-06-09T22:44:25.971Z,20.91
2018-06-09T22:46:55.329Z,20.46
2018-06-09T22:49:24.697Z,20.07
2018-06-09T22:51:55.427Z,19.88
2018-06-09T22:54:24.761Z,20.17
2018-06-09T22:56:54.101Z,20.38
2018-06-09T22:59:23.798Z,20.66
2018-06-09T23:01:53.153Z,20.21
2018-06-09T23:04:22.925Z,20.03
2018-06-09T23:06:52.230Z,20.17
2018-06-09T23:09:21.858Z,20.29
2018-06-09T23:11:51.213Z,20.34
2018-06-09T23:14:21.801Z,20.51
2018-06-09T23:16:51.137Z,20.76
2018-06-09T23:19:20.551Z,20.76
2018-06-09T23:21:49.875Z,20.80
2018-06-09T23:24:19.476Z,20.91
2018-06-09T23:26:49.201Z,21.02
2018-06-09T23:29:18.656Z,21.04
2018-06-09T23:31:48.043Z,21.04
2018-06-09T23:34:17.602Z,21.04
2018-06-09T23:36:47.208Z,20.96
2018-06-09T23:39:16.795Z,20.68
2018-06-09T23:41:46.509Z,20.50
2018-06-09T23:44:16.142Z,20.49
2018-06-09T23:46:45.483Z,20.58
2018-06-09T23:49:14.802Z,20.54
2018-06-09T23:51:44.170Z,20.51
2018-06-09T23:54:13.755Z,20.66
2018-06-09T23:56:43.146Z,20.70
2018-06-09T23:59:12.486Z,20.54
